Flight Track Log - Related Links

Times and Time Zones

All times are in EDT time to prevent confusion due to time zone crossing. See the JZA8247 flight status page for this flight to view local times or setup timezone preferences in your user account.

Time Position Orientation Groundspeed Altitude Reporting Facility
EDT Latitude Longitude Course Direction KTS MPH feet Rate Location/Type
Wed 11:56:45 AM 49.1667 -117.7000 267° West 130 150 7,500  Level Vancouver Center
Wed 11:58:00 AM 49.4943 -117.8259 265° West  Level FlightAware Approximate
Wed 11:58:45 AM 49.1833 -117.8167 282° West 150 173 10,100  Level Vancouver Center
Wed 11:59:00 AM 49.4911 -117.9208 267° West  Level Estimated
Wed 11:59:45 AM 49.1833 -117.9000 270° West 160 184 11,500  Level Vancouver Center
Wed 12:00:00 PM 49.4879 -118.0157 267° West  Level Estimated
Wed 12:00:45 PM 49.1833 -117.9667 270° West 180 207 12,300  Level Vancouver Center
Wed 12:01:00 PM 49.4846 -118.1105 267° West  Level Estimated
Wed 12:01:45 PM 49.2000 -118.0500 287° West 180 207 13,400  Level Vancouver Center
Wed 12:02:00 PM 49.4813 -118.2054 267° West  Level Estimated
Wed 12:02:45 PM 49.2167 -118.1167 291° West 190 219 14,100  Level Vancouver Center
Wed 12:03:45 PM 49.2167 -118.2000 270° West 190 219 15,100 900 Climbing Vancouver Center
Wed 12:04:45 PM 49.2167 -118.3000 270° West 200 230 15,900 850 Climbing Vancouver Center
Wed 12:05:45 PM 49.2333 -118.3833 287° West 200 230 16,800 800 Climbing Vancouver Center
Wed 12:06:45 PM 49.2333 -118.4500 270° West 200 230 17,500 700 Climbing Vancouver Center
Wed 12:07:45 PM 49.2500 -118.5333 287° West 200 230 18,200 700 Climbing Vancouver Center
Wed 12:08:45 PM 49.2500 -118.6333 270° West 200 230 18,900 700 Climbing Vancouver Center
Wed 12:09:45 PM 49.2500 -118.7000 270° West 200 230 19,600 550 Climbing Vancouver Center
Wed 12:10:45 PM 49.2667 -118.8167 282° West 200 230 20,000 200 Climbing Vancouver Center
Wed 12:11:45 PM 49.2833 -118.8833 291° West 220 253 20,000  Level Vancouver Center
Wed 12:12:45 PM 49.2833 -118.9833 270° West 240 276 20,000  Level Vancouver Center
Wed 12:13:45 PM 49.2833 -119.0833 270° West 240 276 20,000  Level Vancouver Center
Wed 12:14:45 PM 49.3000 -119.1833 284° West 250 288 20,000  Level Vancouver Center
Wed 12:15:45 PM 49.3167 -119.2833 284° West 250 288 20,000  Level Vancouver Center
Wed 12:16:45 PM 49.3167 -119.4000 270° West 250 288 20,000  Level Vancouver Center
Wed 12:17:45 PM 49.3167 -119.5167 270° West 250 288 20,000  Level Vancouver Center
Wed 12:18:45 PM 49.3333 -119.6167 284° West 250 288 20,000  Level Vancouver Center
Wed 12:19:45 PM 49.3500 -119.7167 284° West 240 276 20,000  Level Vancouver Center
Wed 12:20:45 PM 49.3500 -119.8333 270° West 250 288 20,000  Level Vancouver Center
Wed 12:21:45 PM 49.3500 -119.9333 270° West 250 288 20,000  Level Vancouver Center
Wed 12:22:45 PM 49.3833 -120.0333 297° West 250 288 20,000  Level Vancouver Center
Wed 12:23:45 PM 49.3833 -120.1333 270° West 250 288 20,000  Level Vancouver Center
Wed 12:24:45 PM 49.3833 -120.2667 270° West 250 288 20,000  Level Vancouver Center
Wed 12:25:45 PM 49.3833 -120.3667 270° West 250 288 20,000  Level Vancouver Center
Wed 12:26:45 PM 49.3833 -120.4333 270° West 250 288 20,000  Level Vancouver Center
Wed 12:27:45 PM 49.4000 -120.5667 281° West 240 276 20,000  Level Vancouver Center
Wed 12:28:45 PM 49.4000 -120.6667 270° West 250 288 20,000  Level Vancouver Center
Wed 12:29:45 PM 49.4000 -120.7667 270° West 240 276 20,000  Level Vancouver Center
Wed 12:30:45 PM 49.4000 -120.8667 270° West 240 276 20,000  Level Vancouver Center
Wed 12:31:45 PM 49.4000 -120.9833 270° West 250 288 20,000  Level Vancouver Center
Wed 12:32:45 PM 49.3833 -121.0833 256° West 250 288 20,000  Level Vancouver Center
Wed 12:33:45 PM 49.4000 -121.1833 284° West 250 288 20,000  Level Vancouver Center
Wed 12:34:45 PM 49.4000 -121.2833 270° West 250 288 20,000  Level Vancouver Center
Wed 12:35:45 PM 49.4000 -121.3833 270° West 240 276 20,000 -200 Level Vancouver Center
Wed 12:36:45 PM 49.4000 -121.4833 270° West 240 276 19,600 -900 Descending Vancouver Center
Wed 12:37:45 PM 49.4000 -121.6167 270° West 260 299 18,200 -1,400 Descending Vancouver Center
Wed 12:38:45 PM 49.3833 -121.7167 256° West 280 322 16,800 -1,400 Descending Vancouver Center
Wed 12:39:45 PM 49.3833 -121.8500 270° West 270 311 15,400 -1,250 Descending Vancouver Center
Wed 12:40:45 PM 49.3833 -121.9500 270° West 240 276 14,300 -1,100 Descending Vancouver Center
Wed 12:41:45 PM 49.4000 -122.0500 284° West 230 265 13,200 -1,150 Descending Vancouver Center
Wed 12:42:45 PM 49.4000 -122.1500 270° West 230 265 12,000 -1,200 Descending Vancouver Center
Wed 12:43:45 PM 49.4000 -122.2667 270° West 240 276 10,800 -1,000 Descending Vancouver Center
Wed 12:44:45 PM 49.3833 -122.3667 256° West 240 276 10,000 -400 Descending Vancouver Center
Wed 12:45:45 PM 49.3500 -122.4333 233° Southwest 220 253 10,000  Level Vancouver Center
Wed 12:46:45 PM 49.3167 -122.5167 238° Southwest 220 253 10,000  Level Vancouver Center
Wed 12:47:45 PM 49.2833 -122.6000 239° Southwest 230 265 10,000  Level Vancouver Center
Wed 12:48:45 PM 49.2500 -122.7000 243° Southwest 230 265 10,000  Level Vancouver Center
Wed 12:49:45 PM 49.2333 -122.8000 256° West 230 265 10,000  Level Vancouver Center
Wed 12:50:45 PM 49.2167 -122.8833 253° West 230 265 10,000  Level Vancouver Center
Wed 12:51:45 PM 49.2333 -122.9833 284° West 230 265 10,000 -400 Level Vancouver Center
Wed 12:52:45 PM 49.2500 -123.0833 284° West 240 276 9,200 -1,200 Descending Vancouver Center
Wed 12:53:45 PM 49.2500 -123.1833 270° West 260 299 7,600 -1,500 Descending Vancouver Center
Wed 12:54:45 PM 49.2667 -123.2833 284° West 250 288 6,200 -1,500 Descending Vancouver Center
Wed 12:55:45 PM 49.2833 -123.3833 284° West 240 276 4,600 -1,500 Descending Vancouver Center
Wed 12:56:45 PM 49.2500 -123.4667 239° Southwest 220 253 3,200 -1,200 Descending Vancouver Center
Wed 12:57:45 PM 49.2167 -123.4333 147° Southeast 180 207 2,200 -600 Descending Vancouver Center
Wed 12:58:45 PM 49.2000 -123.3667 111° Southeast 170 196 2,000 -200 Descending Vancouver Center

Login

Don't have an account? Register now (free) for customized features, flight alerts, and more!